EHFZ

F16-a Sea

F16-a Sea, The Netherlands
METAR EHFZ 170155Z AUTO 32016KT 9999 FEW017 06/02 Q1018 W///H///
Observed Flight Rules
Dec-17 @ 01:55 UTC (32 minutes ago) Visual Flight Rules
Wind Visibility Clouds
320° at 16 knots 10,000+ meters
  • Few at 1,700' AGL
Temperatures Readings
Current 6°C / 43°F
Dewpoint 2°C / 36°F
Humidity 76%
Altimeter 30.06" Hg
Pressure 1018 hPa
Elevation 50
METAR EHFZ 170155Z AUTO 32016KT 9999 FEW017 06/02 Q1018 W///H///
Observed Flight Rules
Dec-17 @ 01:55 UTC
(32 minutes ago)
VFR
Wind Visibility
320° at 16 knots 10,000+ meters
Clouds
  • Few at 1,700' AGL
Temperature Dewpoint
6°C / 43°F 2°C / 36°F
Humidity Altimeter Pressure
76% 30.06" Hg 1018 hPa